createdAt,value
2022-09-15T00:01:30.675Z,73.73
2022-09-15T00:03:58.872Z,73.46
2022-09-15T00:06:26.922Z,73.35
2022-09-15T00:08:56.606Z,73.43
2022-09-15T00:11:27.743Z,73.05
2022-09-15T00:13:57.584Z,73.51
2022-09-15T00:16:28.257Z,73.91
2022-09-15T00:18:56.684Z,74.07
2022-09-15T00:21:30.434Z,74.19
2022-09-15T00:24:01.578Z,74.71
2022-09-15T00:26:31.594Z,74.49
2022-09-15T00:29:01.429Z,74.21
2022-09-15T00:31:32.250Z,74.46
2022-09-15T00:34:03.849Z,74.08
2022-09-15T00:36:32.543Z,74.15
2022-09-15T00:39:02.171Z,73.74
2022-09-15T00:41:31.125Z,73.96
2022-09-15T00:44:02.656Z,73.80
2022-09-15T00:46:39.049Z,74.34
2022-09-15T00:49:10.695Z,73.83
2022-09-15T00:51:48.744Z,73.74
2022-09-15T00:54:22.987Z,73.52
2022-09-15T00:56:56.035Z,73.59
2022-09-15T00:59:28.589Z,73.75
2022-09-15T01:02:03.076Z,73.94
2022-09-15T01:04:31.257Z,74.37
2022-09-15T01:07:04.508Z,73.98
2022-09-15T01:09:39.581Z,73.62
2022-09-15T01:12:08.585Z,74.32
2022-09-15T01:14:36.953Z,74.45
2022-09-15T01:17:16.923Z,74.57
2022-09-15T01:20:43.233Z,73.59
2022-09-15T01:23:58.504Z,73.95
2022-09-15T01:27:37.847Z,73.63
2022-09-15T01:30:08.632Z,73.73
2022-09-15T01:33:09.648Z,73.26
2022-09-15T01:36:04.533Z,73.41
2022-09-15T01:38:50.273Z,73.29
2022-09-15T01:41:25.347Z,73.39
2022-09-15T01:44:01.982Z,73.39
2022-09-15T01:46:35.754Z,73.13
2022-09-15T01:49:05.962Z,73.36
2022-09-15T01:51:36.755Z,73.30
2022-09-15T01:54:07.427Z,73.34
2022-09-15T01:56:37.518Z,73.22
2022-09-15T01:59:06.032Z,73.46
2022-09-15T02:01:43.790Z,73.45
2022-09-15T02:04:18.864Z,73.83
2022-09-15T02:06:56.379Z,73.34
2022-09-15T02:09:29.744Z,73.42
2022-09-15T02:12:08.748Z,73.52
2022-09-15T02:14:52.666Z,73.81
2022-09-15T02:17:23.004Z,73.81
2022-09-15T02:19:56.391Z,73.42
2022-09-15T02:22:27.787Z,73.69
2022-09-15T02:25:03.496Z,73.56
2022-09-15T02:27:37.660Z,74.17
2022-09-15T02:30:12.623Z,73.80
2022-09-15T02:32:48.272Z,73.57
2022-09-15T02:35:17.877Z,73.88
2022-09-15T02:37:46.644Z,73.63
2022-09-15T02:40:14.904Z,73.42
2022-09-15T02:42:53.659Z,73.47
2022-09-15T02:45:22.179Z,73.52
2022-09-15T02:47:51.717Z,73.11
2022-09-15T02:50:20.597Z,73.08
2022-09-15T02:52:48.586Z,73.15
2022-09-15T02:55:16.832Z,72.84
2022-09-15T02:57:44.828Z,72.47
2022-09-15T03:00:15.854Z,72.46
2022-09-15T03:02:46.485Z,72.28
2022-09-15T03:05:18.522Z,72.25
2022-09-15T03:07:46.536Z,72.27
2022-09-15T03:10:16.109Z,71.88
2022-09-15T03:12:47.531Z,71.92
2022-09-15T03:15:17.564Z,72.00
2022-09-15T03:17:47.419Z,71.99
2022-09-15T03:20:20.043Z,71.92
2022-09-15T03:22:48.403Z,72.16
2022-09-15T03:25:17.438Z,72.12
2022-09-15T03:27:45.511Z,71.98
2022-09-15T03:30:16.875Z,71.91
2022-09-15T03:32:44.869Z,72.06
2022-09-15T03:35:12.873Z,72.07
2022-09-15T03:37:42.233Z,72.00
2022-09-15T03:40:11.415Z,71.81
2022-09-15T03:42:39.531Z,72.24
2022-09-15T03:45:08.777Z,72.55
2022-09-15T03:47:36.795Z,73.15
2022-09-15T03:50:06.718Z,72.91
2022-09-15T03:52:34.670Z,72.63
2022-09-15T03:55:04.102Z,72.87
2022-09-15T03:57:32.219Z,72.93
2022-09-15T04:00:00.255Z,73.24
2022-09-15T04:02:28.258Z,73.37
2022-09-15T04:04:56.238Z,73.38
2022-09-15T04:07:25.178Z,73.51
2022-09-15T04:09:53.267Z,73.55
2022-09-15T04:12:22.579Z,73.73
2022-09-15T04:14:50.524Z,73.25
2022-09-15T04:17:18.465Z,73.15
2022-09-15T04:19:46.460Z,72.97
2022-09-15T04:22:17.805Z,72.98
2022-09-15T04:24:47.970Z,72.81
2022-09-15T04:27:16.693Z,73.14
2022-09-15T04:29:46.467Z,73.11
2022-09-15T04:32:14.465Z,73.38
2022-09-15T04:34:42.407Z,73.39
2022-09-15T04:37:10.856Z,73.42
2022-09-15T04:39:38.854Z,73.21
2022-09-15T04:42:07.750Z,73.24
2022-09-15T04:44:36.054Z,73.19
2022-09-15T04:47:06.196Z,72.99
2022-09-15T04:49:34.455Z,72.93
2022-09-15T04:52:06.617Z,73.13
2022-09-15T04:54:37.052Z,73.09
2022-09-15T04:57:05.416Z,73.25
2022-09-15T04:59:33.664Z,72.87
2022-09-15T05:02:01.702Z,73.14
2022-09-15T05:04:31.194Z,73.40
2022-09-15T05:06:59.214Z,73.33
2022-09-15T05:09:29.460Z,74.07
2022-09-15T05:11:57.666Z,73.90
2022-09-15T05:14:25.695Z,73.97
2022-09-15T05:16:53.722Z,74.38
2022-09-15T05:19:21.809Z,74.00
2022-09-15T05:21:51.207Z,73.71
2022-09-15T05:24:19.255Z,74.14
2022-09-15T05:26:47.193Z,73.99
2022-09-15T05:29:15.185Z,73.69
2022-09-15T05:31:43.275Z,73.29
2022-09-15T05:34:11.661Z,73.62
2022-09-15T05:36:39.698Z,73.83
2022-09-15T05:39:08.997Z,73.93
2022-09-15T05:41:36.963Z,73.81
2022-09-15T05:44:04.936Z,73.82
2022-09-15T05:46:33.008Z,74.18
2022-09-15T05:49:25.208Z,74.01
2022-09-15T05:51:54.083Z,74.39
2022-09-15T05:54:23.466Z,74.35
2022-09-15T05:56:51.512Z,74.12
2022-09-15T05:59:19.739Z,73.85
2022-09-15T06:01:48.242Z,74.10
2022-09-15T06:04:16.227Z,74.06
2022-09-15T06:06:44.210Z,74.24
2022-09-15T06:09:12.187Z,74.21
2022-09-15T06:11:41.498Z,74.10
2022-09-15T06:14:09.702Z,74.56
2022-09-15T06:16:38.025Z,75.00
2022-09-15T06:19:06.407Z,74.97
2022-09-15T06:21:34.725Z,75.12
2022-09-15T06:24:06.845Z,75.12
2022-09-15T06:26:35.779Z,74.82
2022-09-15T06:29:06.331Z,74.75
2022-09-15T06:31:35.701Z,75.48
2022-09-15T06:34:05.417Z,75.76
2022-09-15T06:36:34.099Z,76.28
2022-09-15T06:39:02.770Z,76.77
2022-09-15T06:41:52.599Z,77.16
2022-09-15T06:44:21.194Z,77.80
2022-09-15T06:46:49.803Z,77.34
2022-09-15T06:49:18.020Z,77.21
2022-09-15T06:51:46.398Z,77.34
2022-09-15T06:54:16.337Z,77.66
2022-09-15T06:56:45.053Z,77.76
2022-09-15T06:59:15.507Z,77.67
2022-09-15T07:01:45.001Z,77.83
2022-09-15T07:04:12.941Z,77.63
2022-09-15T07:06:41.386Z,77.60
2022-09-15T07:09:09.530Z,77.52
2022-09-15T07:11:37.499Z,77.12
2022-09-15T07:14:05.499Z,77.72
2022-09-15T07:16:34.004Z,77.84
2022-09-15T07:19:03.647Z,77.80
2022-09-15T07:21:31.645Z,77.69
2022-09-15T07:24:02.696Z,77.59
2022-09-15T07:26:33.801Z,78.17
2022-09-15T07:29:05.248Z,78.09
2022-09-15T07:31:36.130Z,78.23
2022-09-15T07:34:06.203Z,78.63
2022-09-15T07:36:34.585Z,78.30
2022-09-15T07:39:06.511Z,77.82
2022-09-15T07:41:35.086Z,77.75
2022-09-15T07:44:04.743Z,77.67
2022-09-15T07:46:34.367Z,77.81
2022-09-15T07:49:03.744Z,77.70
2022-09-15T07:51:33.098Z,77.60
2022-09-15T07:54:01.658Z,77.79
2022-09-15T07:56:29.857Z,77.85
2022-09-15T07:58:58.405Z,78.17
2022-09-15T08:01:27.056Z,78.21
2022-09-15T08:03:55.223Z,78.32
2022-09-15T08:06:26.469Z,77.89
2022-09-15T08:09:00.348Z,78.55
2022-09-15T08:11:31.556Z,78.23
2022-09-15T08:14:02.997Z,78.23
2022-09-15T08:16:31.496Z,78.46
2022-09-15T08:19:01.176Z,78.57
2022-09-15T08:21:29.543Z,78.19
2022-09-15T08:24:01.166Z,78.24
2022-09-15T08:26:30.866Z,77.80
2022-09-15T08:28:59.389Z,78.25
2022-09-15T08:31:27.529Z,78.22
2022-09-15T08:33:56.898Z,78.74
2022-09-15T08:36:28.273Z,78.69
2022-09-15T08:38:57.873Z,78.54
2022-09-15T08:41:30.614Z,78.76
2022-09-15T08:44:05.659Z,79.15
2022-09-15T08:46:41.411Z,79.61
2022-09-15T08:49:30.550Z,79.91
2022-09-15T08:52:10.954Z,80.03
2022-09-15T08:54:40.571Z,79.86
2022-09-15T08:57:17.822Z,79.76
2022-09-15T08:59:45.836Z,79.65
2022-09-15T09:03:05.662Z,79.78
2022-09-15T09:05:53.627Z,79.61
2022-09-15T09:09:04.898Z,79.36
2022-09-15T09:11:54.314Z,79.43
2022-09-15T09:14:34.671Z,78.32
2022-09-15T09:17:25.011Z,77.33
2022-09-15T09:20:31.841Z,77.13
2022-09-15T09:23:03.463Z,77.72
2022-09-15T09:25:31.485Z,76.62
2022-09-15T09:28:04.513Z,76.12
2022-09-15T09:30:35.909Z,76.59
2022-09-15T09:33:23.015Z,76.69
2022-09-15T09:35:52.911Z,76.41
2022-09-15T09:38:25.190Z,76.06
2022-09-15T09:40:55.740Z,75.65
2022-09-15T09:43:30.070Z,75.41
2022-09-15T09:45:59.211Z,75.34
2022-09-15T09:48:29.835Z,75.19
2022-09-15T09:50:58.199Z,74.85
2022-09-15T09:53:30.978Z,75.36
2022-09-15T09:56:18.932Z,75.74
2022-09-15T09:58:48.655Z,75.44
2022-09-15T10:01:19.912Z,75.22
2022-09-15T10:03:48.369Z,75.18
2022-09-15T10:06:20.627Z,74.86
2022-09-15T10:08:58.342Z,75.38
2022-09-15T10:11:43.137Z,75.69
2022-09-15T10:14:22.829Z,75.77
2022-09-15T10:17:02.424Z,75.58
2022-09-15T10:19:34.222Z,76.03
2022-09-15T10:22:03.992Z,76.43
2022-09-15T10:24:37.307Z,76.58
2022-09-15T10:27:26.312Z,76.05
2022-09-15T10:29:57.036Z,76.28
2022-09-15T10:32:28.950Z,76.16
2022-09-15T10:35:07.366Z,75.78
2022-09-15T10:37:49.023Z,75.89
2022-09-15T10:40:34.531Z,75.64
2022-09-15T10:43:25.624Z,75.56
2022-09-15T10:46:04.855Z,75.38
2022-09-15T10:48:44.881Z,75.89
2022-09-15T10:51:33.382Z,75.45
2022-09-15T10:54:23.035Z,75.54
2022-09-15T10:56:58.859Z,74.72
2022-09-15T10:59:44.200Z,74.00
2022-09-15T11:02:56.449Z,73.70
2022-09-15T11:05:37.161Z,74.21
2022-09-15T11:08:33.080Z,74.25
2022-09-15T11:11:13.671Z,74.02
2022-09-15T11:13:56.481Z,73.73
2022-09-15T11:16:41.564Z,74.62
2022-09-15T11:19:34.159Z,75.64
2022-09-15T11:22:08.208Z,74.66
2022-09-15T11:24:45.273Z,75.01
2022-09-15T11:27:21.947Z,75.03
2022-09-15T11:30:05.318Z,75.18
2022-09-15T11:32:41.684Z,74.77
2022-09-15T11:35:43.341Z,75.86
2022-09-15T11:38:24.192Z,76.06
2022-09-15T11:40:58.762Z,76.02
2022-09-15T11:43:35.527Z,75.72
2022-09-15T11:46:12.387Z,75.77
2022-09-15T11:48:44.939Z,75.61
2022-09-15T11:51:17.587Z,75.94
2022-09-15T11:53:52.617Z,75.59
2022-09-15T11:56:28.192Z,75.45
2022-09-15T11:59:08.770Z,75.22
2022-09-15T12:01:48.256Z,74.53
2022-09-15T12:04:23.026Z,75.27
2022-09-15T12:07:01.305Z,74.13
2022-09-15T12:09:29.598Z,74.76
2022-09-15T12:12:02.731Z,74.77
2022-09-15T12:14:36.942Z,74.88
2022-09-15T12:17:09.782Z,74.54
2022-09-15T12:19:54.495Z,75.06
2022-09-15T12:22:29.494Z,74.20
2022-09-15T12:25:04.455Z,73.84
2022-09-15T12:27:32.514Z,74.29
2022-09-15T12:30:02.014Z,75.38
2022-09-15T12:32:31.963Z,74.90
2022-09-15T12:35:12.810Z,74.18
2022-09-15T12:37:47.207Z,74.11
2022-09-15T12:40:37.684Z,73.11
2022-09-15T12:43:20.620Z,72.58
2022-09-15T12:45:57.849Z,72.34
2022-09-15T12:48:30.077Z,73.26
2022-09-15T12:51:02.519Z,73.09
2022-09-15T12:56:11.639Z,72.71
2022-09-15T12:58:45.748Z,73.04
2022-09-15T13:01:49.505Z,73.86
2022-09-15T13:04:55.509Z,73.76
2022-09-15T13:07:53.724Z,73.69
2022-09-15T13:10:42.219Z,72.72
2022-09-15T13:13:33.333Z,73.29
2022-09-15T13:16:03.390Z,73.34
2022-09-15T13:18:33.156Z,74.14
2022-09-15T13:21:08.632Z,73.06
2022-09-15T13:23:42.608Z,73.80
2022-09-15T13:26:22.552Z,72.74
2022-09-15T13:28:55.625Z,73.64
2022-09-15T13:31:39.816Z,74.97
2022-09-15T13:35:09.034Z,75.47
2022-09-15T13:38:29.138Z,74.39
2022-09-15T13:41:42.801Z,74.95
2022-09-15T13:44:56.029Z,74.27
2022-09-15T13:47:46.183Z,74.24
2022-09-15T13:50:21.369Z,74.19
2022-09-15T13:53:27.068Z,74.88
2022-09-15T13:55:55.573Z,74.72
2022-09-15T14:01:17.050Z,74.73
2022-09-15T14:03:50.274Z,74.59
2022-09-15T14:06:22.270Z,74.05
2022-09-15T14:08:54.148Z,74.43
2022-09-15T14:11:30.846Z,75.39
2022-09-15T14:14:01.428Z,75.55
2022-09-15T14:16:36.258Z,76.15
2022-09-15T14:19:23.959Z,75.75
2022-09-15T14:21:56.207Z,75.50
2022-09-15T14:24:30.511Z,74.91
2022-09-15T14:27:03.324Z,75.79
2022-09-15T14:29:33.023Z,74.62
2022-09-15T14:32:03.914Z,73.56
2022-09-15T14:34:36.580Z,72.80
2022-09-15T14:37:08.808Z,73.01
2022-09-15T14:39:37.707Z,72.96
2022-09-15T14:42:22.826Z,71.89
2022-09-15T14:47:43.704Z,72.56
2022-09-15T14:50:17.366Z,71.60
2022-09-15T14:52:49.403Z,71.09
2022-09-15T14:55:23.633Z,70.88
2022-09-15T14:58:02.614Z,70.51
2022-09-15T15:00:38.330Z,70.26
2022-09-15T15:03:22.219Z,69.38
2022-09-15T15:06:02.654Z,69.97
2022-09-15T15:08:37.902Z,70.89
2022-09-15T15:11:10.663Z,70.99
2022-09-15T15:13:42.202Z,68.70
2022-09-15T15:16:21.487Z,69.72
2022-09-15T15:18:51.242Z,70.17
2022-09-15T15:21:41.618Z,69.93
2022-09-15T15:24:18.378Z,70.33
2022-09-15T15:26:47.699Z,69.70
2022-09-15T15:29:43.311Z,69.01
2022-09-15T15:32:15.985Z,70.15
2022-09-15T15:34:51.991Z,70.45
2022-09-15T15:37:28.011Z,70.12
2022-09-15T15:39:57.276Z,69.94
2022-09-15T15:42:28.440Z,70.21
2022-09-15T15:45:05.186Z,69.23
2022-09-15T15:47:37.831Z,69.37
2022-09-15T15:50:14.214Z,69.29
2022-09-15T15:52:43.624Z,68.57
2022-09-15T15:55:15.859Z,68.68
2022-09-15T15:57:45.577Z,67.25
2022-09-15T16:00:22.091Z,68.03
2022-09-15T16:02:53.118Z,69.37
2022-09-15T16:05:26.208Z,69.10
2022-09-15T16:07:57.072Z,69.21
2022-09-15T16:10:29.935Z,69.40
2022-09-15T16:12:58.048Z,69.36
2022-09-15T16:15:26.048Z,68.81
2022-09-15T16:17:55.393Z,69.66
2022-09-15T16:20:25.071Z,69.36
2022-09-15T16:22:53.297Z,68.84
2022-09-15T16:25:31.834Z,69.57
2022-09-15T16:28:00.493Z,70.04
2022-09-15T16:30:28.811Z,69.08
2022-09-15T16:32:58.534Z,69.18
2022-09-15T16:35:35.994Z,67.87
2022-09-15T16:38:04.409Z,68.11
2022-09-15T16:40:32.458Z,69.00
2022-09-15T16:43:00.850Z,68.96
2022-09-15T16:45:36.523Z,68.14
2022-09-15T16:48:09.759Z,68.22
2022-09-15T16:50:40.163Z,68.76
2022-09-15T16:53:15.752Z,68.93
2022-09-15T16:55:47.164Z,68.83
2022-09-15T16:58:17.915Z,68.90
2022-09-15T17:00:48.213Z,69.36
2022-09-15T17:03:21.259Z,69.74
2022-09-15T17:05:51.133Z,70.09
2022-09-15T17:08:21.330Z,70.47
2022-09-15T17:10:50.258Z,70.43
2022-09-15T17:13:23.963Z,70.44
2022-09-15T17:15:54.966Z,70.31
2022-09-15T17:18:24.926Z,69.99
2022-09-15T17:20:53.303Z,69.93
2022-09-15T17:23:24.550Z,70.60
2022-09-15T17:25:57.375Z,70.46
2022-09-15T17:28:28.761Z,70.27
2022-09-15T17:31:00.330Z,70.55
2022-09-15T17:33:32.400Z,70.44
2022-09-15T17:36:01.327Z,70.56
2022-09-15T17:38:29.316Z,70.81
2022-09-15T17:40:57.286Z,70.83
2022-09-15T17:43:27.639Z,70.39
2022-09-15T17:45:56.219Z,71.33
2022-09-15T17:48:25.354Z,71.01
2022-09-15T17:50:54.823Z,70.73
2022-09-15T17:53:26.559Z,71.14
2022-09-15T17:55:56.328Z,71.40
2022-09-15T17:58:26.491Z,71.24
2022-09-15T18:00:55.335Z,71.51
2022-09-15T18:03:27.609Z,71.47
2022-09-15T18:05:59.148Z,71.75
2022-09-15T18:08:28.742Z,71.48
2022-09-15T18:10:57.175Z,71.39
2022-09-15T18:13:27.875Z,71.36
2022-09-15T18:15:56.567Z,71.62
2022-09-15T18:18:27.005Z,71.12
2022-09-15T18:20:57.825Z,71.01
2022-09-15T18:23:29.646Z,71.51
2022-09-15T18:25:58.235Z,72.01
2022-09-15T18:28:26.287Z,71.87
2022-09-15T18:30:54.326Z,72.59
2022-09-15T18:33:25.182Z,72.62
2022-09-15T18:35:56.636Z,72.19
2022-09-15T18:38:25.826Z,72.03
2022-09-15T18:40:56.123Z,72.44
2022-09-15T18:43:26.817Z,72.48
2022-09-15T18:45:59.242Z,72.24
2022-09-15T18:48:27.364Z,72.05
2022-09-15T18:50:57.186Z,71.81
2022-09-15T18:53:25.429Z,71.75
2022-09-15T18:55:53.407Z,71.71
2022-09-15T18:58:22.383Z,71.67
2022-09-15T19:00:50.483Z,71.12
2022-09-15T19:03:18.563Z,71.64
2022-09-15T19:05:46.569Z,71.36
2022-09-15T19:08:15.881Z,71.79
2022-09-15T19:10:44.179Z,71.75
2022-09-15T19:13:14.057Z,71.96
2022-09-15T19:15:43.680Z,72.07
2022-09-15T19:18:11.769Z,71.62
2022-09-15T19:20:40.138Z,71.67
2022-09-15T19:23:09.332Z,72.21
2022-09-15T19:25:41.323Z,72.24
2022-09-15T19:28:09.523Z,71.99
2022-09-15T19:30:37.626Z,72.23
2022-09-15T19:33:05.872Z,71.45
2022-09-15T19:35:33.866Z,71.23
2022-09-15T19:38:01.861Z,71.53
2022-09-15T19:40:29.894Z,71.24
2022-09-15T19:42:59.258Z,71.67
2022-09-15T19:45:27.238Z,71.43
2022-09-15T19:47:55.291Z,71.57
2022-09-15T19:50:23.592Z,71.32
2022-09-15T19:52:53.412Z,71.32
2022-09-15T19:55:23.405Z,71.63
2022-09-15T19:57:51.538Z,71.81
2022-09-15T20:00:21.416Z,71.61
2022-09-15T20:02:49.810Z,71.01
2022-09-15T20:05:18.131Z,71.24
2022-09-15T20:07:48.000Z,71.36
2022-09-15T20:10:16.717Z,71.25
2022-09-15T20:12:44.678Z,71.25
2022-09-15T20:15:12.707Z,70.87
2022-09-15T20:17:42.288Z,70.96
2022-09-15T20:20:12.377Z,70.67
2022-09-15T20:22:40.414Z,71.13
2022-09-15T20:25:09.152Z,71.14
2022-09-15T20:27:37.115Z,71.51
2022-09-15T20:30:07.009Z,71.45
2022-09-15T20:32:34.994Z,71.39
2022-09-15T20:35:04.871Z,70.72
2022-09-15T20:37:37.433Z,71.31
2022-09-15T20:40:07.815Z,71.04
2022-09-15T20:42:36.093Z,71.45
2022-09-15T20:45:05.355Z,71.26
2022-09-15T20:47:33.433Z,71.63
2022-09-15T20:50:01.398Z,71.02
2022-09-15T20:52:37.415Z,71.37
2022-09-15T20:55:07.216Z,71.68
2022-09-15T20:57:35.316Z,71.16
2022-09-15T21:00:06.044Z,71.01
2022-09-15T21:02:34.134Z,71.00
2022-09-15T21:05:02.172Z,70.89
2022-09-15T21:07:30.175Z,70.76
2022-09-15T21:09:59.455Z,71.19
2022-09-15T21:12:29.601Z,70.58
2022-09-15T21:14:57.836Z,71.54
2022-09-15T21:17:26.116Z,70.95
2022-09-15T21:19:54.160Z,70.79
2022-09-15T21:22:22.125Z,70.70
2022-09-15T21:24:50.471Z,70.51
2022-09-15T21:27:29.975Z,70.76
2022-09-15T21:29:58.330Z,70.50
2022-09-15T21:32:26.312Z,70.36
2022-09-15T21:34:55.778Z,70.63
2022-09-15T21:37:23.940Z,71.27
2022-09-15T21:39:51.950Z,70.42
2022-09-15T21:42:22.396Z,70.25
2022-09-15T21:44:50.807Z,69.62
2022-09-15T21:47:18.970Z,70.54
2022-09-15T21:49:46.942Z,70.60
2022-09-15T21:52:15.014Z,70.06
2022-09-15T21:54:43.324Z,70.21
2022-09-15T21:57:11.737Z,70.26
2022-09-15T21:59:41.783Z,70.49
2022-09-15T22:02:11.546Z,71.29
2022-09-15T22:04:39.849Z,70.88
2022-09-15T22:07:09.743Z,70.79
2022-09-15T22:09:38.628Z,71.15
2022-09-15T22:12:07.283Z,70.75
2022-09-15T22:14:35.419Z,70.68
2022-09-15T22:17:05.624Z,70.50
2022-09-15T22:19:33.701Z,70.13
2022-09-15T22:22:02.083Z,70.83
2022-09-15T22:24:30.162Z,70.94
2022-09-15T22:26:58.159Z,71.10
2022-09-15T22:29:26.160Z,70.84
2022-09-15T22:31:54.379Z,71.08
2022-09-15T22:34:24.170Z,70.92
2022-09-15T22:36:52.119Z,70.71
2022-09-15T22:39:20.104Z,70.56
2022-09-15T22:41:48.053Z,71.00
2022-09-15T22:44:21.352Z,71.12
2022-09-15T22:46:51.213Z,71.75
2022-09-15T22:49:19.752Z,72.10
2022-09-15T22:51:49.061Z,71.80
2022-09-15T22:54:17.267Z,71.96
2022-09-15T22:56:46.883Z,71.60
2022-09-15T22:59:14.865Z,71.97
2022-09-15T23:01:42.897Z,72.35
2022-09-15T23:04:11.005Z,71.93
2022-09-15T23:06:39.014Z,72.27
2022-09-15T23:09:11.242Z,71.82
2022-09-15T23:11:40.693Z,71.60
2022-09-15T23:14:13.107Z,71.35
2022-09-15T23:16:41.786Z,71.00
2022-09-15T23:19:12.234Z,71.63
2022-09-15T23:21:40.853Z,71.47
2022-09-15T23:24:12.214Z,71.90
2022-09-15T23:26:41.327Z,71.56
2022-09-15T23:29:10.000Z,71.80
2022-09-15T23:31:38.281Z,72.04
2022-09-15T23:34:06.334Z,71.87
2022-09-15T23:36:34.302Z,71.53
2022-09-15T23:39:02.384Z,71.83
2022-09-15T23:41:31.793Z,71.64
2022-09-15T23:43:59.889Z,71.48
2022-09-15T23:46:27.984Z,71.20
2022-09-15T23:48:56.015Z,71.53
2022-09-15T23:51:24.051Z,71.24
2022-09-15T23:53:52.126Z,71.02
2022-09-15T23:56:20.150Z,71.22
2022-09-15T23:58:49.486Z,71.57
